Time;durP1;ratioP1;P1;durP2;ratioP2;P2;SDS_P1;SDS_P2;PMS_P1;PMS_P2;Temp;Humidity;BMP_temperature;BMP_pressure;BME280_temperature;BME280_humidity;BME280_pressure;Samples;Min_cycle;Max_cycle;Signal;HPM_P1;HPM_P2
2022/10/03 00:02:10;;;;;;;7.75;2.10;;;;;;;;;;5095773;27;20053;-69
2022/10/03 00:04:39;;;;;;;8.77;1.88;;;;;;;;;;5108653;27;20626;-69
2022/10/03 00:07:12;;;;;;;10.32;2.80;;;;;;;;;;5112690;27;20048;-70
2022/10/03 00:09:41;;;;;;;11.35;2.40;;;;;;;;;;5097296;27;20063;-70
2022/10/03 00:12:26;;;;;;;10.80;2.35;;;;;;;;;;5091753;27;20082;-70
2022/10/03 00:15:12;;;;;;;14.80;2.83;;;;;;;;;;5094596;27;20049;-69
2022/10/03 00:17:50;;;;;;;7.07;1.80;;;;;;;;;;5093861;27;20274;-70
2022/10/03 00:20:36;;;;;;;8.02;1.95;;;;;;;;;;5092200;28;20106;-70
2022/10/03 00:23:08;;;;;;;6.67;2.07;;;;;;;;;;5098021;27;20106;-70
2022/10/03 00:25:52;;;;;;;5.78;1.70;;;;;;;;;;5113406;27;20262;-70
2022/10/03 00:28:19;;;;;;;11.32;2.58;;;;;;;;;;5107403;27;20133;-69
2022/10/03 00:31:06;;;;;;;9.98;1.48;;;;;;;;;;5097939;27;20056;-69
2022/10/03 00:33:51;;;;;;;9.23;2.42;;;;;;;;;;5109149;27;20082;-69
2022/10/03 00:36:28;;;;;;;8.48;1.75;;;;;;;;;;5108431;28;20063;-70
2022/10/03 00:39:13;;;;;;;7.00;1.90;;;;;;;;;;5103886;27;20052;-70
2022/10/03 00:41:46;;;;;;;7.68;1.80;;;;;;;;;;5111670;27;20487;-70
2022/10/03 00:44:31;;;;;;;5.15;1.77;;;;;;;;;;5094441;27;20052;-70
2022/10/03 00:46:58;;;;;;;3.40;1.52;;;;;;;;;;5091214;28;20466;-69
2022/10/03 00:49:41;;;;;;;6.13;1.63;;;;;;;;;;5113581;27;20105;-70
2022/10/03 00:52:10;;;;;;;11.57;1.95;;;;;;;;;;5113819;27;20114;-70
2022/10/03 00:54:41;;;;;;;13.43;2.17;;;;;;;;;;5103423;27;20056;-70
2022/10/03 00:57:26;;;;;;;10.10;2.50;;;;;;;;;;5110136;27;20082;-70
2022/10/03 01:00:07;;;;;;;10.05;1.73;;;;;;;;;;5110299;27;20943;-70
2022/10/03 01:02:35;;;;;;;10.68;2.08;;;;;;;;;;5103835;27;20110;-70
2022/10/03 01:05:04;;;;;;;9.35;2.22;;;;;;;;;;5111519;27;20488;-70
2022/10/03 01:07:43;;;;;;;7.78;1.73;;;;;;;;;;5113486;27;20064;-70
2022/10/03 01:10:22;;;;;;;8.65;2.33;;;;;;;;;;5107304;27;20057;-70
2022/10/03 01:12:48;;;;;;;10.07;1.70;;;;;;;;;;5095454;27;20106;-70
2022/10/03 01:15:17;;;;;;;11.00;2.03;;;;;;;;;;5099970;27;20097;-70
2022/10/03 01:18:07;;;;;;;5.82;1.80;;;;;;;;;;5097046;27;20095;-69
2022/10/03 01:20:37;;;;;;;8.88;1.55;;;;;;;;;;5110983;27;20114;-69
2022/10/03 01:23:06;;;;;;;7.32;1.73;;;;;;;;;;5095363;27;20501;-70
2022/10/03 01:25:53;;;;;;;4.70;1.67;;;;;;;;;;5094597;28;20102;-70
2022/10/03 01:31:12;;;;;;;8.30;1.70;;;;;;;;;;5103469;27;20098;-70
2022/10/03 01:33:42;;;;;;;8.18;1.65;;;;;;;;;;5120588;27;20052;-70
2022/10/03 01:36:16;;;;;;;7.70;1.58;;;;;;;;;;5114217;27;20048;-70
2022/10/03 01:38:48;;;;;;;4.57;1.65;;;;;;;;;;5122745;27;20105;-69
2022/10/03 01:41:19;;;;;;;9.50;1.92;;;;;;;;;;5124107;27;20056;-70
2022/10/03 01:44:18;;;;;;;7.22;1.55;;;;;;;;;;5114744;27;20052;-70
2022/10/03 01:46:47;;;;;;;7.88;1.70;;;;;;;;;;5080152;28;20130;-70
2022/10/03 01:49:26;;;;;;;8.82;1.75;;;;;;;;;;5111142;27;20052;-70
2022/10/03 01:51:58;;;;;;;7.20;1.73;;;;;;;;;;5094504;27;20517;-70
2022/10/03 01:54:31;;;;;;;13.07;1.70;;;;;;;;;;5113991;27;20492;-70
2022/10/03 01:57:03;;;;;;;14.25;1.92;;;;;;;;;;5114149;27;20385;-70
2022/10/03 01:59:41;;;;;;;11.70;2.15;;;;;;;;;;5113417;27;20051;-70
2022/10/03 02:02:20;;;;;;;9.18;1.58;;;;;;;;;;5093607;27;20126;-70
2022/10/03 02:04:52;;;;;;;4.28;1.40;;;;;;;;;;5121852;27;20453;-70
2022/10/03 02:07:34;;;;;;;4.75;1.42;;;;;;;;;;5112244;27;20098;-70
2022/10/03 02:10:18;;;;;;;4.43;1.58;;;;;;;;;;5111589;27;20056;-70
2022/10/03 02:12:48;;;;;;;7.95;1.67;;;;;;;;;;5110543;27;20572;-69
2022/10/03 02:15:23;;;;;;;6.72;1.63;;;;;;;;;;5107269;27;20515;-70
2022/10/03 02:17:55;;;;;;;9.63;1.77;;;;;;;;;;5114027;27;20106;-69
2022/10/03 02:20:39;;;;;;;7.30;1.85;;;;;;;;;;5111502;27;20101;-70
2022/10/03 02:23:35;;;;;;;7.80;1.80;;;;;;;;;;5107913;27;20062;-70
2022/10/03 02:26:07;;;;;;;5.43;1.20;;;;;;;;;;5083124;28;20045;-70
2022/10/03 02:28:54;;;;;;;8.18;1.67;;;;;;;;;;5108939;27;20953;-70
2022/10/03 02:31:35;;;;;;;7.43;1.65;;;;;;;;;;5111898;27;20052;-70
2022/10/03 02:34:15;;;;;;;7.32;1.80;;;;;;;;;;5110872;27;20049;-70
2022/10/03 02:36:56;;;;;;;8.82;1.38;;;;;;;;;;5096993;27;20056;-70
2022/10/03 02:39:41;;;;;;;11.18;2.10;;;;;;;;;;5113499;27;20145;-70
2022/10/03 02:42:25;;;;;;;12.27;1.52;;;;;;;;;;5093356;28;20547;-71
2022/10/03 02:44:52;;;;;;;6.05;1.30;;;;;;;;;;5093286;28;20122;-70
2022/10/03 02:47:41;;;;;;;7.82;1.65;;;;;;;;;;5095102;27;20095;-70
2022/10/03 02:50:25;;;;;;;9.98;2.22;;;;;;;;;;5110638;27;20074;-70
2022/10/03 02:53:10;;;;;;;9.98;2.38;;;;;;;;;;5110951;27;20571;-70
2022/10/03 02:55:55;;;;;;;4.15;1.58;;;;;;;;;;5122511;27;20052;-70
2022/10/03 02:58:39;;;;;;;8.25;2.05;;;;;;;;;;5107054;27;20082;-70
2022/10/03 03:01:18;;;;;;;6.43;1.80;;;;;;;;;;5111187;27;20466;-70
2022/10/03 03:04:03;;;;;;;9.00;2.25;;;;;;;;;;5113033;27;20143;-70
2022/10/03 03:07:05;;;;;;;5.43;1.60;;;;;;;;;;5100492;27;20110;-70
2022/10/03 03:09:32;;;;;;;9.50;1.45;;;;;;;;;;5070714;28;20160;-70
2022/10/03 03:12:10;;;;;;;36.30;2.55;;;;;;;;;;5115832;27;20100;-69
2022/10/03 03:14:42;;;;;;;7.13;2.60;;;;;;;;;;5115106;27;20112;-70
2022/10/03 03:17:22;;;;;;;5.20;1.40;;;;;;;;;;5107097;27;20094;-70
2022/10/03 03:20:13;;;;;;;5.28;1.67;;;;;;;;;;5092866;28;20526;-70
2022/10/03 03:22:42;;;;;;;7.20;1.70;;;;;;;;;;5096705;27;20052;-70
2022/10/03 03:25:09;;;;;;;5.55;1.38;;;;;;;;;;5104681;27;20078;-70
2022/10/03 03:27:54;;;;;;;4.80;1.33;;;;;;;;;;5104606;27;20067;-70
2022/10/03 03:30:28;;;;;;;4.13;1.40;;;;;;;;;;5114351;27;20048;-71
2022/10/03 03:33:04;;;;;;;4.97;1.40;;;;;;;;;;5104910;27;20458;-70
2022/10/03 03:35:46;;;;;;;4.68;1.45;;;;;;;;;;5113464;27;20056;-70
2022/10/03 03:38:15;;;;;;;8.20;1.77;;;;;;;;;;5118176;27;20082;-70
2022/10/03 03:40:55;;;;;;;5.45;1.30;;;;;;;;;;5113877;27;20087;-70
2022/10/03 03:43:36;;;;;;;5.95;1.85;;;;;;;;;;5104581;27;20046;-70
2022/10/03 03:46:21;;;;;;;5.70;1.63;;;;;;;;;;5091971;27;20052;-70
2022/10/03 03:48:58;;;;;;;5.75;1.45;;;;;;;;;;5091004;27;20132;-70
2022/10/03 03:51:33;;;;;;;8.30;1.27;;;;;;;;;;5093234;28;20119;-70
2022/10/03 03:54:02;;;;;;;9.07;1.63;;;;;;;;;;5097895;27;20060;-71
2022/10/03 03:56:35;;;;;;;3.72;1.15;;;;;;;;;;5105091;27;20990;-70
2022/10/03 03:59:07;;;;;;;6.43;1.45;;;;;;;;;;5103942;27;20056;-70
2022/10/03 04:01:42;;;;;;;3.78;1.20;;;;;;;;;;5091055;27;20056;-70
2022/10/03 04:04:29;;;;;;;8.00;1.70;;;;;;;;;;5107431;27;20091;-70
2022/10/03 04:06:59;;;;;;;3.33;1.15;;;;;;;;;;5076702;28;20044;-70
2022/10/03 04:09:25;;;;;;;5.20;1.10;;;;;;;;;;5107769;28;20056;-70
2022/10/03 04:11:55;;;;;;;2.60;1.17;;;;;;;;;;5107680;27;20056;-70
2022/10/03 04:14:37;;;;;;;5.88;1.10;;;;;;;;;;5107696;27;20044;-70
2022/10/03 04:20:07;;;;;;;7.55;1.40;;;;;;;;;;5091791;28;20048;-70
2022/10/03 04:22:37;;;;;;;3.10;1.23;;;;;;;;;;5094969;27;20074;-70
2022/10/03 04:25:16;;;;;;;4.88;1.38;;;;;;;;;;5110544;27;20060;-70
2022/10/03 04:28:12;;;;;;;4.63;1.80;;;;;;;;;;5107611;27;20063;-69
2022/10/03 04:31:03;;;;;;;2.47;1.30;;;;;;;;;;5062944;28;20111;-70
2022/10/03 04:33:42;;;;;;;3.33;1.75;;;;;;;;;;5102546;27;20052;-70
2022/10/03 04:36:32;;;;;;;7.60;1.73;;;;;;;;;;5111814;27;20060;-70
2022/10/03 04:39:04;;;;;;;3.92;1.15;;;;;;;;;;5123206;27;20047;-70
2022/10/03 04:41:30;;;;;;;5.03;1.60;;;;;;;;;;5092133;27;20507;-69
2022/10/03 04:44:10;;;;;;;8.57;1.60;;;;;;;;;;5091624;27;20527;-70
2022/10/03 04:46:59;;;;;;;8.43;1.50;;;;;;;;;;5101938;27;20106;-70
2022/10/03 04:49:34;;;;;;;6.07;1.40;;;;;;;;;;5105055;27;20048;-70
2022/10/03 04:52:19;;;;;;;4.03;1.42;;;;;;;;;;5106604;27;20055;-70
2022/10/03 04:54:51;;;;;;;7.38;1.42;;;;;;;;;;5092352;28;20189;-70
2022/10/03 04:57:30;;;;;;;3.80;1.30;;;;;;;;;;5094526;27;20052;-69
2022/10/03 04:59:56;;;;;;;6.10;1.70;;;;;;;;;;5097914;27;20053;-71
2022/10/03 05:02:23;;;;;;;6.88;1.88;;;;;;;;;;5107769;27;20450;-70
2022/10/03 05:05:09;;;;;;;7.15;1.60;;;;;;;;;;5097961;27;20142;-70
2022/10/03 05:07:49;;;;;;;7.13;1.40;;;;;;;;;;5106925;27;20064;-70
2022/10/03 05:10:28;;;;;;;7.30;1.80;;;;;;;;;;5107485;27;20060;-70
2022/10/03 05:13:03;;;;;;;6.78;1.67;;;;;;;;;;5105191;27;20485;-70
2022/10/03 05:15:49;;;;;;;6.90;1.45;;;;;;;;;;5091979;28;20052;-70
2022/10/03 05:18:18;;;;;;;5.75;1.50;;;;;;;;;;5091333;27;21012;-70
2022/10/03 05:21:04;;;;;;;15.23;3.60;;;;;;;;;;5100633;27;20048;-70
2022/10/03 05:23:46;;;;;;;10.35;3.17;;;;;;;;;;5111626;27;20500;-70
2022/10/03 05:26:31;;;;;;;14.07;4.38;;;;;;;;;;5109607;27;20467;-70
2022/10/03 05:29:14;;;;;;;7.57;3.05;;;;;;;;;;5107113;27;20087;-71
2022/10/03 05:31:59;;;;;;;8.27;2.58;;;;;;;;;;5107077;27;20576;-70
2022/10/03 05:34:32;;;;;;;5.85;2.97;;;;;;;;;;5107382;27;20091;-70
2022/10/03 05:37:17;;;;;;;4.15;2.10;;;;;;;;;;5103704;27;20117;-70
2022/10/03 05:39:53;;;;;;;9.27;2.28;;;;;;;;;;5107542;27;20098;-70
2022/10/03 05:42:33;;;;;;;4.13;1.40;;;;;;;;;;5104320;27;20106;-72
2022/10/03 05:44:59;;;;;;;7.20;1.98;;;;;;;;;;5099378;28;20565;-72
2022/10/03 05:47:43;;;;;;;6.47;2.00;;;;;;;;;;5111070;27;20044;-70
2022/10/03 05:50:30;;;;;;;6.47;2.00;;;;;;;;;;5113000;27;20056;-71
2022/10/03 05:53:16;;;;;;;5.63;2.03;;;;;;;;;;5101564;27;20056;-71
2022/10/03 05:55:45;;;;;;;7.78;1.98;;;;;;;;;;5094549;28;20447;-69
2022/10/03 05:58:18;;;;;;;6.97;1.88;;;;;;;;;;5112500;27;20221;-69
2022/10/03 06:01:00;;;;;;;6.13;2.58;;;;;;;;;;5104616;27;20055;-69
2022/10/03 06:03:46;;;;;;;3.80;1.60;;;;;;;;;;5104225;27;20056;-69
2022/10/03 06:06:32;;;;;;;9.10;2.10;;;;;;;;;;5099854;27;20476;-68
2022/10/03 06:09:11;;;;;;;8.00;1.75;;;;;;;;;;5099071;27;20079;-70
2022/10/03 06:11:45;;;;;;;8.90;2.15;;;;;;;;;;5108057;27;20553;-69
2022/10/03 06:14:26;;;;;;;4.78;1.58;;;;;;;;;;5102741;27;20056;-70
2022/10/03 06:16:59;;;;;;;9.88;2.05;;;;;;;;;;5104399;28;20078;-70
2022/10/03 06:19:25;;;;;;;8.48;2.10;;;;;;;;;;5112510;27;20060;-70
2022/10/03 06:22:10;;;;;;;6.05;2.05;;;;;;;;;;5113198;27;20048;-70
2022/10/03 06:24:45;;;;;;;9.95;2.08;;;;;;;;;;5112989;27;20055;-70
2022/10/03 06:27:35;;;;;;;6.78;2.45;;;;;;;;;;5111631;27;20056;-70
2022/10/03 06:30:11;;;;;;;4.13;1.70;;;;;;;;;;5093731;27;20859;-70
2022/10/03 06:32:53;;;;;;;7.10;2.00;;;;;;;;;;5107793;28;20498;-69
2022/10/03 06:35:28;;;;;;;3.63;1.73;;;;;;;;;;5112926;28;20056;-69
2022/10/03 06:38:04;;;;;;;5.90;1.88;;;;;;;;;;5111779;27;20056;-70
2022/10/03 06:40:48;;;;;;;4.70;2.20;;;;;;;;;;5112477;27;20138;-69
2022/10/03 06:43:36;;;;;;;4.45;1.85;;;;;;;;;;5097606;27;20053;-70
2022/10/03 06:46:21;;;;;;;6.40;2.10;;;;;;;;;;5112682;27;20052;-72
2022/10/03 06:48:47;;;;;;;2.90;1.50;;;;;;;;;;5106757;27;20052;-71
2022/10/03 06:51:30;;;;;;;7.22;2.10;;;;;;;;;;5109044;27;20266;-71
2022/10/03 06:54:06;;;;;;;5.03;1.80;;;;;;;;;;5109941;27;20102;-70
2022/10/03 06:56:51;;;;;;;7.65;1.85;;;;;;;;;;5109720;28;20056;-70
2022/10/03 06:59:26;;;;;;;8.13;2.67;;;;;;;;;;5113211;27;20593;-69
2022/10/03 07:01:58;;;;;;;11.65;2.30;;;;;;;;;;5110005;28;20110;-69
2022/10/03 07:04:43;;;;;;;5.80;1.58;;;;;;;;;;5113163;27;20550;-69
2022/10/03 07:07:36;;;;;;;6.40;2.20;;;;;;;;;;5110351;27;20209;-68
2022/10/03 07:10:25;;;;;;;7.38;1.95;;;;;;;;;;5109536;27;20052;-70
2022/10/03 07:13:09;;;;;;;6.30;2.17;;;;;;;;;;5101112;27;20048;-70
2022/10/03 07:15:56;;;;;;;6.53;1.90;;;;;;;;;;5106093;27;20048;-72
2022/10/03 07:19:01;;;;;;;9.20;2.28;;;;;;;;;;5099173;27;20109;-70
2022/10/03 07:21:57;;;;;;;9.13;1.90;;;;;;;;;;5112598;27;20130;-70
2022/10/03 07:24:43;;;;;;;7.10;1.85;;;;;;;;;;5110543;27;21213;-71
2022/10/03 07:27:24;;;;;;;11.57;2.47;;;;;;;;;;5110780;27;20110;-70
2022/10/03 07:30:09;;;;;;;7.82;1.92;;;;;;;;;;5110966;27;20052;-71
2022/10/03 07:32:57;;;;;;;6.15;1.92;;;;;;;;;;5112436;28;20059;-70
2022/10/03 07:38:57;;;;;;;8.80;1.95;;;;;;;;;;5112476;27;20113;-70
2022/10/03 07:41:32;;;;;;;7.10;2.25;;;;;;;;;;5104492;27;20057;-70
2022/10/03 07:43:58;;;;;;;;;;;;;;;;;;5113006;28;20468;-70
2022/10/03 07:46:43;;;;;;;5.18;1.52;;;;;;;;;;5111435;28;43953;-70
2022/10/03 07:49:11;;;;;;;7.32;2.20;;;;;;;;;;5112557;28;20079;-70
2022/10/03 07:51:59;;;;;;;10.18;2.65;;;;;;;;;;5112691;27;20048;-70
2022/10/03 07:54:40;;;;;;;8.80;1.90;;;;;;;;;;5109523;27;20915;-70
2022/10/03 07:57:25;;;;;;;4.70;1.40;;;;;;;;;;5109870;28;20097;-70
2022/10/03 07:59:54;;;;;;;12.60;1.88;;;;;;;;;;5111394;27;20056;-70
2022/10/03 08:02:23;;;;;;;6.40;1.77;;;;;;;;;;5109850;27;20401;-70
2022/10/03 08:04:49;;;;;;;9.05;1.90;;;;;;;;;;5098998;28;20052;-72
2022/10/03 08:07:34;;;;;;;7.63;1.95;;;;;;;;;;5112049;28;20056;-71
2022/10/03 08:10:01;;;;;;;5.43;2.20;;;;;;;;;;5110029;27;20056;-71
2022/10/03 08:12:46;;;;;;;8.88;1.75;;;;;;;;;;5123397;27;20307;-71
2022/10/03 08:15:31;;;;;;;6.85;1.70;;;;;;;;;;5118683;27;20673;-70
2022/10/03 08:17:58;;;;;;;7.15;1.80;;;;;;;;;;5112335;28;20503;-70
2022/10/03 08:20:30;;;;;;;10.38;2.33;;;;;;;;;;5111170;27;20056;-71
2022/10/03 08:23:02;;;;;;;7.90;2.08;;;;;;;;;;5108993;27;20052;-70
2022/10/03 08:25:44;;;;;;;7.80;1.55;;;;;;;;;;5109615;27;20052;-70
2022/10/03 08:28:40;;;;;;;7.30;1.40;;;;;;;;;;5108160;27;20060;-70
2022/10/03 08:31:24;;;;;;;8.40;1.58;;;;;;;;;;5110030;28;20056;-70
2022/10/03 08:34:03;;;;;;;5.10;1.25;;;;;;;;;;5110161;27;20060;-70
2022/10/03 08:36:35;;;;;;;4.15;1.58;;;;;;;;;;5102356;28;20056;-69
2022/10/03 08:39:24;;;;;;;5.38;1.30;;;;;;;;;;5106025;27;20053;-69
2022/10/03 08:41:53;;;;;;;9.55;2.83;;;;;;;;;;5106023;27;20185;-68
2022/10/03 08:44:26;;;;;;;7.15;2.05;;;;;;;;;;5103132;28;20163;-67
2022/10/03 08:47:01;;;;;;;9.15;1.80;;;;;;;;;;5110999;27;20083;-68
2022/10/03 08:49:48;;;;;;;4.75;1.23;;;;;;;;;;5103152;27;20052;-67
2022/10/03 08:52:20;;;;;;;2.78;1.20;;;;;;;;;;5112360;28;20056;-68
2022/10/03 08:54:50;;;;;;;8.18;1.40;;;;;;;;;;5109131;27;20922;-70
2022/10/03 08:57:30;;;;;;;14.35;2.13;;;;;;;;;;5106717;28;20052;-69
2022/10/03 09:00:17;;;;;;;10.68;1.95;;;;;;;;;;5107458;27;20048;-69
2022/10/03 09:02:47;;;;;;;5.53;1.10;;;;;;;;;;5111013;27;20055;-69
2022/10/03 09:05:33;;;;;;;10.80;2.13;;;;;;;;;;5110335;28;20476;-72
2022/10/03 09:08:18;;;;;;;7.85;1.30;;;;;;;;;;5109828;27;20044;-70
2022/10/03 09:11:03;;;;;;;6.78;1.40;;;;;;;;;;5109531;28;20117;-71
2022/10/03 09:13:32;;;;;;;7.50;1.90;;;;;;;;;;5111577;27;20070;-69
2022/10/03 09:16:19;;;;;;;4.55;1.45;;;;;;;;;;5110936;27;20060;-71
2022/10/03 09:18:45;;;;;;;6.20;1.48;;;;;;;;;;5099966;28;20117;-69
2022/10/03 09:21:19;;;;;;;6.90;1.27;;;;;;;;;;5111096;27;20476;-69
2022/10/03 09:24:05;;;;;;;8.25;1.50;;;;;;;;;;5103904;28;20056;-70
2022/10/03 09:26:54;;;;;;;8.35;1.73;;;;;;;;;;5112831;27;20052;-72
2022/10/03 09:29:27;;;;;;;10.27;2.03;;;;;;;;;;5113727;27;20221;-70
2022/10/03 09:32:13;;;;;;;5.82;1.60;;;;;;;;;;5114383;27;20063;-72
2022/10/03 09:34:57;;;;;;;7.78;1.77;;;;;;;;;;5114574;28;20048;-69
2022/10/03 09:38:02;;;;;;;8.05;1.27;;;;;;;;;;5114238;27;20052;-69
2022/10/03 09:40:40;;;;;;;7.68;1.40;;;;;;;;;;5061522;28;20983;-70
2022/10/03 09:43:06;;;;;;;6.38;1.33;;;;;;;;;;5051024;28;20064;-70
2022/10/03 09:45:54;;;;;;;6.35;1.27;;;;;;;;;;5085506;27;20525;-69
2022/10/03 09:48:20;;;;;;;5.15;1.40;;;;;;;;;;5117023;27;20120;-69
2022/10/03 09:51:05;;;;;;;9.95;3.10;;;;;;;;;;5133859;27;20495;-69
2022/10/03 09:53:35;;;;;;;6.47;1.53;;;;;;;;;;5114152;27;20063;-69
2022/10/03 09:56:10;;;;;;;12.18;1.73;;;;;;;;;;5113261;27;20102;-69
2022/10/03 09:58:42;;;;;;;5.97;1.48;;;;;;;;;;5103000;27;20060;-70
2022/10/03 10:01:14;;;;;;;4.05;0.82;;;;;;;;;;5098759;27;20063;-69
2022/10/03 10:03:53;;;;;;;3.88;1.10;;;;;;;;;;5114052;27;20063;-69
2022/10/03 10:24:03;;;;;;;5.10;1.35;;;;;;;;;;5106507;27;20496;-67
2022/10/03 10:26:42;;;;;;;9.23;2.10;;;;;;;;;;5130027;27;20098;-66
2022/10/03 10:29:18;;;;;;;11.48;1.60;;;;;;;;;;5119605;27;20064;-66
2022/10/03 10:31:44;;;;;;;;;;;;;;;;;;5135053;27;20055;-67
2022/10/03 10:34:23;;;;;;;7.90;1.20;;;;;;;;;;5127921;27;44858;-69
2022/10/03 10:37:08;;;;;;;1.90;0.98;;;;;;;;;;5127209;27;20055;-67
2022/10/03 10:40:01;;;;;;;6.55;1.17;;;;;;;;;;5131109;27;20055;-67
2022/10/03 10:42:27;;;;;;;7.35;1.42;;;;;;;;;;5140096;27;20055;-68
2022/10/03 10:45:14;;;;;;;7.93;1.67;;;;;;;;;;5121313;27;20105;-68
2022/10/03 10:47:43;;;;;;;5.95;1.42;;;;;;;;;;5133778;27;20055;-67
2022/10/03 10:50:28;;;;;;;3.67;1.02;;;;;;;;;;5119474;27;20052;-68
2022/10/03 10:53:14;;;;;;;5.15;0.90;;;;;;;;;;5124219;27;20097;-68
2022/10/03 10:56:02;;;;;;;6.65;1.42;;;;;;;;;;5133438;27;20587;-65
2022/10/03 10:58:47;;;;;;;6.97;1.55;;;;;;;;;;5132630;27;20560;-66
2022/10/03 11:01:32;;;;;;;3.78;0.98;;;;;;;;;;5133102;27;20056;-66
2022/10/03 11:04:12;;;;;;;8.10;1.63;;;;;;;;;;5132684;27;20052;-66
2022/10/03 11:06:40;;;;;;;3.85;1.17;;;;;;;;;;5126383;27;20097;-66
2022/10/03 11:09:27;;;;;;;5.05;1.17;;;;;;;;;;5133971;27;20426;-66
2022/10/03 11:12:21;;;;;;;4.28;1.52;;;;;;;;;;5133436;27;20055;-66
2022/10/03 11:15:04;;;;;;;9.02;1.40;;;;;;;;;;5127340;27;20052;-67
2022/10/03 11:17:57;;;;;;;9.38;1.77;;;;;;;;;;5122035;27;20047;-65
2022/10/03 11:20:40;;;;;;;5.53;1.50;;;;;;;;;;5091960;27;20097;-66
2022/10/03 11:23:19;;;;;;;5.30;1.40;;;;;;;;;;5129594;27;20101;-66
2022/10/03 11:26:03;;;;;;;10.07;2.13;;;;;;;;;;5134195;27;20051;-66
2022/10/03 11:28:54;;;;;;;8.27;1.75;;;;;;;;;;5132503;27;20070;-67
2022/10/03 11:31:27;;;;;;;5.28;1.67;;;;;;;;;;5140658;27;20547;-69
2022/10/03 11:33:59;;;;;;;7.32;1.23;;;;;;;;;;5131063;27;20511;-68
2022/10/03 11:36:42;;;;;;;5.57;1.38;;;;;;;;;;5130901;27;20059;-68
2022/10/03 11:39:30;;;;;;;4.68;1.02;;;;;;;;;;5131415;27;20564;-68
2022/10/03 11:42:00;;;;;;;7.00;1.45;;;;;;;;;;5132881;27;20051;-67
2022/10/03 11:44:29;;;;;;;5.05;1.27;;;;;;;;;;5112728;28;20048;-68
2022/10/03 11:47:18;;;;;;;3.30;1.20;;;;;;;;;;5120634;27;20109;-69
2022/10/03 11:50:04;;;;;;;7.82;1.42;;;;;;;;;;5131210;27;20047;-68
2022/10/03 11:52:49;;;;;;;7.93;1.92;;;;;;;;;;5117276;27;20110;-67
2022/10/03 11:55:29;;;;;;;6.23;1.90;;;;;;;;;;5118416;27;20051;-67
2022/10/03 11:58:14;;;;;;;8.57;1.45;;;;;;;;;;5132620;27;20266;-68
2022/10/03 12:00:42;;;;;;;4.50;1.33;;;;;;;;;;5115538;27;20055;-66
2022/10/03 12:03:12;;;;;;;12.75;1.42;;;;;;;;;;5128467;27;20052;-67
2022/10/03 12:05:45;;;;;;;7.15;1.60;;;;;;;;;;5127504;27;20070;-67
2022/10/03 12:11:04;;;;;;;5.43;1.52;;;;;;;;;;5133314;27;20105;-67
2022/10/03 12:13:36;;;;;;;6.28;1.95;;;;;;;;;;5131962;27;20047;-66
2022/10/03 12:16:05;;;;;;;4.82;1.50;;;;;;;;;;5133968;27;20109;-66
2022/10/03 12:18:49;;;;;;;6.85;1.33;;;;;;;;;;5133051;27;20048;-67
2022/10/03 12:21:15;;;;;;;7.90;1.48;;;;;;;;;;5130723;27;20051;-66
2022/10/03 12:23:48;;;;;;;4.05;1.38;;;;;;;;;;5129364;27;20051;-68
2022/10/03 12:26:24;;;;;;;9.35;1.65;;;;;;;;;;5123814;27;20575;-65
2022/10/03 12:28:51;;;;;;;7.85;1.90;;;;;;;;;;5132292;27;20105;-66
2022/10/03 12:31:23;;;;;;;7.40;1.40;;;;;;;;;;5132990;27;20060;-66
2022/10/03 12:33:55;;;;;;;5.18;1.40;;;;;;;;;;5132166;27;20105;-66
2022/10/03 12:36:30;;;;;;;11.85;1.40;;;;;;;;;;5131907;27;20082;-65
2022/10/03 12:38:56;;;;;;;4.47;1.40;;;;;;;;;;5130909;27;20051;-65
2022/10/03 12:41:23;;;;;;;6.68;1.60;;;;;;;;;;5131083;27;20080;-65
2022/10/03 12:44:04;;;;;;;10.68;2.03;;;;;;;;;;5131359;27;20588;-65
2022/10/03 12:46:54;;;;;;;6.93;1.35;;;;;;;;;;5130793;27;20048;-65
2022/10/03 12:49:28;;;;;;;5.85;1.38;;;;;;;;;;5101130;27;20431;-65
2022/10/03 13:13:27;;;;;;;6.82;1.83;;;;;;;;;;5087188;27;20095;-66
2022/10/03 13:16:12;;;;;;;9.30;1.50;;;;;;;;;;5074757;27;20549;-66
2022/10/03 13:18:41;;;;;;;5.63;2.03;;;;;;;;;;5115291;27;20538;-67
2022/10/03 13:21:08;;;;;;;5.50;1.75;;;;;;;;;;5113347;27;20476;-66
2022/10/03 13:24:01;;;;;;;8.43;1.30;;;;;;;;;;5103986;27;20080;-68
2022/10/03 13:26:46;;;;;;;5.05;1.63;;;;;;;;;;5113162;28;20098;-67
2022/10/03 13:29:12;;;;;;;6.60;1.35;;;;;;;;;;5110696;27;20048;-68
2022/10/03 13:31:54;;;;;;;4.90;1.58;;;;;;;;;;5112160;27;20055;-68
2022/10/03 13:34:22;;;;;;;7.57;1.65;;;;;;;;;;5117156;27;20051;-68
2022/10/03 13:42:19;;;;;;;9.15;1.67;;;;;;;;;;2039016;22;20016;-73
2022/10/03 13:44:51;;;;;;;4.57;1.30;;;;;;;;;;5107568;27;20059;-73
2022/10/03 13:47:20;;;;;;;6.18;1.52;;;;;;;;;;5110189;27;20199;-72
2022/10/03 13:50:09;;;;;;;8.52;1.85;;;;;;;;;;5115093;27;20052;-72
2022/10/03 13:52:36;;;;;;;6.38;1.40;;;;;;;;;;5067599;27;20056;-72
2022/10/03 13:55:05;;;;;;;4.05;1.88;;;;;;;;;;5100319;28;20059;-71
2022/10/03 13:57:34;;;;;;;8.27;2.00;;;;;;;;;;5106814;27;20044;-71
2022/10/03 14:00:07;;;;;;;8.13;1.73;;;;;;;;;;5112655;27;20051;-71
2022/10/03 14:02:42;;;;;;;6.05;1.65;;;;;;;;;;5124094;27;20598;-72
2022/10/03 14:05:09;;;;;;;7.28;2.10;;;;;;;;;;5122196;27;20056;-71
2022/10/03 14:07:54;;;;;;;5.05;1.60;;;;;;;;;;5111410;27;20097;-73
2022/10/03 14:10:39;;;;;;;6.23;1.67;;;;;;;;;;5104381;27;20059;-72
2022/10/03 14:13:18;;;;;;;4.97;1.33;;;;;;;;;;5108735;27;20823;-72
2022/10/03 14:15:58;;;;;;;10.05;2.15;;;;;;;;;;5556323;22;20134;-72
2022/10/03 14:18:26;;;;;;;9.85;1.63;;;;;;;;;;5094718;27;20139;-76
2022/10/03 14:21:11;;;;;;;7.03;1.65;;;;;;;;;;5106090;27;20056;-76
2022/10/03 14:24:01;;;;;;;5.35;1.95;;;;;;;;;;5115423;27;20540;-75
2022/10/03 14:26:32;;;;;;;6.63;1.80;;;;;;;;;;5099658;27;20056;-75
2022/10/03 14:29:11;;;;;;;8.85;2.38;;;;;;;;;;5110523;27;20056;-77
2022/10/03 14:31:44;;;;;;;6.20;1.77;;;;;;;;;;5120636;27;20101;-76
2022/10/03 14:34:18;;;;;;;8.63;2.03;;;;;;;;;;5119075;27;20058;-76
2022/10/03 14:36:53;;;;;;;8.00;2.00;;;;;;;;;;5115815;27;20055;-76
2022/10/03 14:39:21;;;;;;;;;;;;;;;;;;5118831;27;20052;-76
2022/10/03 14:41:51;;;;;;;7.70;1.77;;;;;;;;;;5102359;28;45692;-75
2022/10/03 14:44:35;;;;;;;8.38;1.67;;;;;;;;;;5106253;27;20270;-76
2022/10/03 14:47:13;;;;;;;8.50;1.77;;;;;;;;;;5114522;27;20052;-76
2022/10/03 14:49:46;;;;;;;12.10;2.28;;;;;;;;;;5114300;27;20056;-76
2022/10/03 15:12:43;;;;;;;75.53;45.10;;;;;;;;;;5123101;27;1286277;-55
2022/10/03 15:15:14;;;;;;;74.53;40.78;;;;;;;;;;5146456;27;20250;-55
2022/10/03 15:17:46;;;;;;;16.20;6.82;;;;;;;;;;5158130;27;20625;-53
2022/10/03 15:20:16;;;;;;;17.65;7.28;;;;;;;;;;5155002;27;20050;-55
2022/10/03 15:22:50;;;;;;;16.95;9.18;;;;;;;;;;5149740;27;20054;-52
2022/10/03 15:25:16;;;;;;;13.82;6.32;;;;;;;;;;5156038;27;20061;-52
2022/10/03 15:27:49;;;;;;;10.57;3.38;;;;;;;;;;5158027;27;20134;-52
2022/10/03 15:30:21;;;;;;;14.95;5.32;;;;;;;;;;5150329;27;20516;-53
2022/10/03 15:32:54;;;;;;;9.85;3.30;;;;;;;;;;5158748;27;20054;-55
2022/10/03 15:35:31;;;;;;;12.38;3.85;;;;;;;;;;5155194;27;20256;-61
2022/10/03 15:38:05;;;;;;;7.68;1.73;;;;;;;;;;5153117;27;20166;-66
2022/10/03 15:40:33;;;;;;;10.65;1.90;;;;;;;;;;5152177;27;20492;-66
2022/10/03 15:43:02;;;;;;;8.57;1.60;;;;;;;;;;5145091;27;20511;-66
2022/10/03 15:45:31;;;;;;;6.93;1.65;;;;;;;;;;5152152;27;20151;-65
2022/10/03 15:47:59;;;;;;;6.38;1.58;;;;;;;;;;5151789;27;20080;-66
2022/10/03 15:50:29;;;;;;;7.50;2.38;;;;;;;;;;5158946;27;20482;-66
2022/10/03 15:52:59;;;;;;;6.15;1.70;;;;;;;;;;5146936;27;20132;-66
2022/10/03 15:55:49;;;;;;;10.40;2.95;;;;;;;;;;5154591;27;20095;-63
2022/10/03 15:58:32;;;;;;;9.05;2.08;;;;;;;;;;5144591;27;20315;-65
2022/10/03 16:01:13;;;;;;;4.00;1.65;;;;;;;;;;5149073;27;20046;-66
2022/10/03 16:03:53;;;;;;;5.35;1.70;;;;;;;;;;5147241;27;20043;-65
2022/10/03 16:06:21;;;;;;;10.73;2.00;;;;;;;;;;5144482;27;20537;-65
2022/10/03 16:08:59;;;;;;;10.63;1.65;;;;;;;;;;5158619;27;20576;-63
2022/10/03 16:12:02;;;;;;;7.20;1.67;;;;;;;;;;5151585;27;20474;-65
2022/10/03 16:14:33;;;;;;;8.00;2.10;;;;;;;;;;5056175;28;20469;-65
2022/10/03 16:17:04;;;;;;;5.10;1.80;;;;;;;;;;5073651;28;20060;-65
2022/10/03 16:19:30;;;;;;;8.63;1.90;;;;;;;;;;5072400;28;20059;-64
2022/10/03 16:22:16;;;;;;;8.55;2.10;;;;;;;;;;5072559;28;20052;-65
2022/10/03 16:25:00;;;;;;;7.07;1.90;;;;;;;;;;5065152;28;20071;-64
2022/10/03 16:27:28;;;;;;;9.27;1.85;;;;;;;;;;5050126;28;20057;-64
2022/10/03 16:30:14;;;;;;;10.65;2.03;;;;;;;;;;5059894;28;20095;-64
2022/10/03 16:32:41;;;;;;;9.93;2.00;;;;;;;;;;5058995;28;20053;-65
2022/10/03 16:35:25;;;;;;;6.28;2.38;;;;;;;;;;5051820;28;20144;-64
2022/10/03 16:37:52;;;;;;;7.65;1.80;;;;;;;;;;5045986;28;20055;-63
2022/10/03 16:40:20;;;;;;;8.00;2.28;;;;;;;;;;5058246;28;20060;-65
2022/10/03 16:42:49;;;;;;;5.70;1.88;;;;;;;;;;5059171;28;20053;-64
2022/10/03 16:45:24;;;;;;;9.32;2.10;;;;;;;;;;5060679;28;20056;-65
2022/10/03 16:50:23;;;;;;;7.45;2.03;;;;;;;;;;5073597;27;20053;-65
2022/10/03 16:50:41;;;;;;;9.10;3.50;;;;;;;;;;5138720;27;20507;-64
2022/10/03 16:53:11;;;;;;;4.80;2.20;;;;;;;;;;5138245;27;20047;-65
2022/10/03 16:56:04;;;;;;;10.07;2.10;;;;;;;;;;5135861;27;20130;-64
2022/10/03 16:58:38;;;;;;;7.63;2.00;;;;;;;;;;5138268;27;20502;-64
2022/10/03 17:01:13;;;;;;;8.00;2.30;;;;;;;;;;5143664;27;20551;-64